createdAt,value
2017-06-05T00:00:18.998Z,13.45
2017-06-05T00:02:45.672Z,13.50
2017-06-05T00:05:12.372Z,13.57
2017-06-05T00:07:39.049Z,13.10
2017-06-05T00:10:05.753Z,14.93
2017-06-05T00:12:32.425Z,12.82
2017-06-05T00:14:59.096Z,13.77
2017-06-05T00:17:25.778Z,15.23
2017-06-05T00:19:52.467Z,15.27
2017-06-05T00:22:19.140Z,15.77
2017-06-05T00:24:45.812Z,13.85
2017-06-05T00:27:12.488Z,17.40
2017-06-05T00:29:39.164Z,14.48
2017-06-05T00:32:05.860Z,14.85
2017-06-05T00:34:32.536Z,13.62
2017-06-05T00:36:59.210Z,16.27
2017-06-05T00:39:25.891Z,14.30
2017-06-05T00:41:52.560Z,15.70
2017-06-05T00:44:19.246Z,15.65
2017-06-05T00:46:45.916Z,15.75
2017-06-05T00:49:12.585Z,14.30
2017-06-05T00:51:39.264Z,14.87
2017-06-05T00:54:05.965Z,14.38
2017-06-05T00:56:32.636Z,16.02
2017-06-05T00:58:59.340Z,15.00
2017-06-05T01:01:26.016Z,15.07
2017-06-05T01:03:52.683Z,15.40
2017-06-05T01:06:19.351Z,16.48
2017-06-05T01:08:46.025Z,16.12
2017-06-05T01:11:12.697Z,16.27
2017-06-05T01:13:39.373Z,15.45
2017-06-05T01:16:06.072Z,16.02
2017-06-05T01:18:32.745Z,14.38
2017-06-05T01:20:59.421Z,14.90
2017-06-05T01:23:26.095Z,14.52
2017-06-05T01:25:52.777Z,15.25
2017-06-05T01:28:19.451Z,13.90
2017-06-05T01:30:46.123Z,15.75
2017-06-05T01:33:12.802Z,15.65
2017-06-05T01:35:39.475Z,15.55
2017-06-05T01:38:06.189Z,14.45
2017-06-05T01:40:32.857Z,16.00
2017-06-05T01:42:59.536Z,16.48
2017-06-05T01:45:26.210Z,15.90
2017-06-05T01:47:52.890Z,16.40
2017-06-05T01:50:19.563Z,15.98
2017-06-05T01:52:46.249Z,15.98
2017-06-05T01:55:12.929Z,17.15
2017-06-05T01:57:39.604Z,17.80
2017-06-05T02:00:06.333Z,16.70
2017-06-05T02:02:33.037Z,16.50
2017-06-05T02:04:59.708Z,16.02
2017-06-05T02:07:26.384Z,15.45
2017-06-05T02:09:53.056Z,17.95
2017-06-05T02:12:19.728Z,15.45
2017-06-05T02:14:46.404Z,16.52
2017-06-05T02:17:13.077Z,16.15
2017-06-05T02:19:39.753Z,15.55
2017-06-05T02:22:06.488Z,17.35
2017-06-05T02:24:33.160Z,17.20
2017-06-05T02:26:59.831Z,17.40
2017-06-05T02:29:26.507Z,18.05
2017-06-05T02:31:53.180Z,17.42
2017-06-05T02:34:19.919Z,18.35
2017-06-05T02:36:46.592Z,15.50
2017-06-05T02:39:13.308Z,17.23
2017-06-05T02:41:39.978Z,16.70
2017-06-05T02:44:06.657Z,17.27
2017-06-05T02:46:33.336Z,16.58
2017-06-05T02:49:00.008Z,18.80
2017-06-05T02:51:26.681Z,18.30
2017-06-05T02:53:53.360Z,17.70
2017-06-05T02:56:20.036Z,15.80
2017-06-05T02:58:46.708Z,16.30
2017-06-05T03:01:13.404Z,18.05
2017-06-05T03:03:40.074Z,17.48
2017-06-05T03:06:06.809Z,17.98
2017-06-05T03:08:33.495Z,17.30
2017-06-05T03:11:00.164Z,18.42
2017-06-05T03:13:26.836Z,16.37
2017-06-05T03:15:53.507Z,17.27
2017-06-05T03:18:20.184Z,16.27
2017-06-05T03:20:46.862Z,16.90
2017-06-05T03:23:13.536Z,17.98
2017-06-05T03:25:40.209Z,16.98
2017-06-05T03:28:06.889Z,16.40
2017-06-05T03:30:33.561Z,16.33
2017-06-05T03:33:00.236Z,16.10
2017-06-05T03:35:26.936Z,15.98
2017-06-05T03:37:53.607Z,17.77
2017-06-05T03:40:20.315Z,16.60
2017-06-05T03:42:46.988Z,17.25
2017-06-05T03:45:13.659Z,16.95
2017-06-05T03:47:40.364Z,16.77
2017-06-05T03:50:07.040Z,17.15
2017-06-05T03:52:33.771Z,16.77
2017-06-05T03:55:00.436Z,17.60
2017-06-05T03:57:27.103Z,17.15
2017-06-05T03:59:53.781Z,17.67
2017-06-05T04:02:20.455Z,18.08
2017-06-05T04:04:47.155Z,16.60
2017-06-05T04:07:13.824Z,17.90
2017-06-05T04:09:40.518Z,16.52
2017-06-05T04:12:07.191Z,16.58
2017-06-05T04:14:33.893Z,18.00
2017-06-05T04:17:00.563Z,16.58
2017-06-05T04:19:27.236Z,16.45
2017-06-05T04:21:53.912Z,17.17
2017-06-05T04:24:20.579Z,17.62
2017-06-05T04:26:47.285Z,16.05
2017-06-05T04:29:13.955Z,16.62
2017-06-05T04:31:40.659Z,16.48
2017-06-05T04:34:07.340Z,15.15
2017-06-05T04:36:34.067Z,15.18
2017-06-05T04:39:00.736Z,15.32
2017-06-05T04:41:27.415Z,16.60
2017-06-05T04:43:54.083Z,15.90
2017-06-05T04:46:20.760Z,15.30
2017-06-05T04:48:47.681Z,15.88
2017-06-05T04:51:14.352Z,15.27
2017-06-05T04:53:41.057Z,15.00
2017-06-05T04:56:07.729Z,13.80
2017-06-05T04:58:34.409Z,14.48
2017-06-05T05:01:01.083Z,14.75
2017-06-05T05:03:27.793Z,14.55
2017-06-05T05:05:54.466Z,15.45
2017-06-05T05:08:21.140Z,14.90
2017-06-05T05:10:47.914Z,14.80
2017-06-05T05:13:14.592Z,12.65
2017-06-05T05:15:41.299Z,14.45
2017-06-05T05:18:07.968Z,13.75
2017-06-05T05:20:34.639Z,13.90
2017-06-05T05:23:01.320Z,14.60
2017-06-05T05:25:27.996Z,13.18
2017-06-05T05:27:54.671Z,12.35
2017-06-05T05:30:21.351Z,13.52
2017-06-05T05:32:48.045Z,12.93
2017-06-05T05:35:14.732Z,13.07
2017-06-05T05:37:41.454Z,11.80
2017-06-05T05:40:08.120Z,11.30
2017-06-05T05:42:34.791Z,11.63
2017-06-05T05:45:01.463Z,11.20
2017-06-05T05:47:28.140Z,11.47
2017-06-05T05:49:54.814Z,11.33
2017-06-05T05:52:21.500Z,10.63
2017-06-05T05:54:48.210Z,10.97
2017-06-05T05:57:14.883Z,10.53
2017-06-05T05:59:41.617Z,10.27
2017-06-05T06:02:08.290Z,10.13
2017-06-05T06:04:34.964Z,10.60
2017-06-05T06:07:01.640Z,10.23
2017-06-05T06:09:28.311Z,11.87
2017-06-05T06:11:54.982Z,10.13
2017-06-05T06:14:21.656Z,10.70
2017-06-05T06:16:48.352Z,9.67
2017-06-05T06:19:15.027Z,9.90
2017-06-05T06:21:41.755Z,10.20
2017-06-05T06:24:08.444Z,10.00
2017-06-05T06:26:35.120Z,11.13
2017-06-05T06:29:01.788Z,10.80
2017-06-05T06:31:28.468Z,10.20
2017-06-05T06:33:55.146Z,10.37
2017-06-05T06:36:21.815Z,11.47
2017-06-05T06:38:48.497Z,10.43
2017-06-05T06:41:15.164Z,10.10
2017-06-05T06:43:41.860Z,10.30
2017-06-05T06:46:08.544Z,9.80
2017-06-05T06:48:35.207Z,9.60
2017-06-05T06:51:01.881Z,8.73
2017-06-05T06:53:28.556Z,9.60
2017-06-05T06:55:55.233Z,9.40
2017-06-05T06:58:21.905Z,9.30
2017-06-05T07:00:48.576Z,8.93
2017-06-05T07:03:15.237Z,9.00
2017-06-05T07:05:41.932Z,8.63
2017-06-05T07:08:08.600Z,8.00
2017-06-05T07:10:35.269Z,7.57
2017-06-05T07:13:01.935Z,6.97
2017-06-05T07:15:28.609Z,7.50
2017-06-05T07:17:55.281Z,7.27
2017-06-05T07:20:21.954Z,7.47
2017-06-05T07:22:48.628Z,7.17
2017-06-05T07:25:15.300Z,6.60
2017-06-05T07:27:41.971Z,6.10
2017-06-05T07:30:08.635Z,6.40
2017-06-05T07:32:35.295Z,6.43
2017-06-05T07:35:01.958Z,6.27
2017-06-05T07:37:28.680Z,6.80
2017-06-05T07:39:55.352Z,6.60
2017-06-05T07:42:22.019Z,7.00
2017-06-05T07:44:48.684Z,7.03
2017-06-05T07:47:15.354Z,6.73
2017-06-05T07:49:42.026Z,6.97
2017-06-05T07:52:08.692Z,6.83
2017-06-05T07:54:35.360Z,7.10
2017-06-05T07:57:02.031Z,6.83
2017-06-05T07:59:28.731Z,4.90
2017-06-05T08:01:55.396Z,5.40
2017-06-05T08:04:22.059Z,5.63
2017-06-05T08:06:49.520Z,5.07
2017-06-05T08:09:16.188Z,3.90
2017-06-05T08:11:42.851Z,4.53
2017-06-05T08:14:09.512Z,5.97
2017-06-05T08:16:36.171Z,6.27
2017-06-05T08:19:02.840Z,5.63
2017-06-05T08:21:29.507Z,5.60
2017-06-05T08:23:56.168Z,5.30
2017-06-05T08:26:22.828Z,5.40
2017-06-05T08:28:49.493Z,5.43
2017-06-05T08:31:16.189Z,5.70
2017-06-05T08:33:42.863Z,5.07
2017-06-05T08:36:09.523Z,4.93
2017-06-05T08:38:36.187Z,5.80
2017-06-05T08:41:02.860Z,35.17
2017-06-05T08:43:29.529Z,5.20
2017-06-05T08:45:56.191Z,4.87
2017-06-05T08:48:22.851Z,5.20
2017-06-05T08:50:49.529Z,5.17
2017-06-05T08:53:16.200Z,9.20
2017-06-05T08:55:42.864Z,4.97
2017-06-05T08:58:09.528Z,4.57
2017-06-05T09:00:36.187Z,4.87
2017-06-05T09:03:02.877Z,4.87
2017-06-05T09:05:29.540Z,5.10
2017-06-05T09:07:56.456Z,4.43
2017-06-05T09:10:23.125Z,5.00
2017-06-05T09:12:49.788Z,5.10
2017-06-05T09:15:16.456Z,5.23
2017-06-05T09:17:43.129Z,4.57
2017-06-05T09:20:09.796Z,4.87
2017-06-05T09:22:36.463Z,4.70
2017-06-05T09:25:03.160Z,4.70
2017-06-05T09:27:29.827Z,4.40
2017-06-05T09:29:56.560Z,4.80
2017-06-05T09:32:23.227Z,4.77
2017-06-05T09:34:49.895Z,4.73
2017-06-05T09:37:16.594Z,3.97
2017-06-05T09:39:43.255Z,4.50
2017-06-05T09:42:09.940Z,4.20
2017-06-05T09:44:36.611Z,4.10
2017-06-05T09:47:03.309Z,4.57
2017-06-05T09:49:29.980Z,3.70
2017-06-05T09:51:56.669Z,4.20
2017-06-05T09:54:23.333Z,4.07
2017-06-05T09:56:50.036Z,4.13
2017-06-05T09:59:16.706Z,4.40
2017-06-05T10:01:43.371Z,4.23
2017-06-05T10:04:10.037Z,4.07
2017-06-05T10:06:36.700Z,4.50
2017-06-05T10:09:03.405Z,4.63
2017-06-05T10:11:30.076Z,4.27
2017-06-05T10:13:56.764Z,4.27
2017-06-05T10:16:23.424Z,3.80
2017-06-05T10:18:50.122Z,3.17
2017-06-05T10:21:16.788Z,3.53
2017-06-05T10:23:43.490Z,3.00
2017-06-05T10:26:10.158Z,3.10
2017-06-05T10:28:36.824Z,3.23
2017-06-05T10:31:03.491Z,3.37
2017-06-05T10:33:30.160Z,3.27
2017-06-05T10:35:56.825Z,3.60
2017-06-05T10:38:23.505Z,3.93
2017-06-05T10:40:50.187Z,3.80
2017-06-05T10:43:16.897Z,3.57
2017-06-05T10:45:43.560Z,4.07
2017-06-05T10:48:10.228Z,3.60
2017-06-05T10:50:36.891Z,3.53
2017-06-05T10:53:03.552Z,4.00
2017-06-05T10:55:30.227Z,3.60
2017-06-05T10:57:56.893Z,3.33
2017-06-05T11:00:23.564Z,3.30
2017-06-05T11:02:50.232Z,4.00
2017-06-05T11:05:16.892Z,4.37
2017-06-05T11:07:43.551Z,3.90
2017-06-05T11:10:10.215Z,4.57
2017-06-05T11:12:36.876Z,4.30
2017-06-05T11:15:03.537Z,4.57
2017-06-05T11:17:30.200Z,4.30
2017-06-05T11:19:56.862Z,4.50
2017-06-05T11:22:23.523Z,4.67
2017-06-05T11:24:50.189Z,4.30
2017-06-05T11:27:16.852Z,4.60
2017-06-05T11:29:43.528Z,4.40
2017-06-05T11:32:10.196Z,4.07
2017-06-05T11:34:36.880Z,4.40
2017-06-05T11:37:03.547Z,4.80
2017-06-05T11:39:30.270Z,4.17
2017-06-05T11:41:56.935Z,4.73
2017-06-05T11:44:23.617Z,4.37
2017-06-05T11:46:50.288Z,4.17
2017-06-05T11:49:16.948Z,4.77
2017-06-05T11:51:43.624Z,4.40
2017-06-05T11:54:10.284Z,4.60
2017-06-05T11:56:36.971Z,4.60
2017-06-05T11:59:03.639Z,4.53
2017-06-05T12:01:30.307Z,4.40
2017-06-05T12:03:56.973Z,3.93
2017-06-05T12:06:23.646Z,4.60
2017-06-05T12:08:50.312Z,4.80
2017-06-05T12:11:16.972Z,5.20
2017-06-05T12:13:43.667Z,4.27
2017-06-05T12:16:10.334Z,4.57
2017-06-05T12:18:37.000Z,3.93
2017-06-05T12:21:03.683Z,5.53
2017-06-05T12:23:30.353Z,4.40
2017-06-05T12:25:57.016Z,5.00
2017-06-05T12:28:23.677Z,4.50
2017-06-05T12:30:50.413Z,4.80
2017-06-05T12:33:17.092Z,4.67
2017-06-05T12:35:43.763Z,4.20
2017-06-05T12:38:10.429Z,5.10
2017-06-05T12:40:37.104Z,4.60
2017-06-05T12:43:03.768Z,4.80
2017-06-05T12:45:30.435Z,4.33
2017-06-05T12:47:57.103Z,5.07
2017-06-05T12:50:23.773Z,5.03
2017-06-05T12:52:50.435Z,4.60
2017-06-05T12:55:17.100Z,4.30
2017-06-05T12:57:43.772Z,5.13
2017-06-05T13:00:10.441Z,4.50
2017-06-05T13:02:37.123Z,4.27
2017-06-05T13:05:03.783Z,4.23
2017-06-05T13:07:30.448Z,4.13
2017-06-05T13:09:57.181Z,4.73
2017-06-05T13:12:23.844Z,3.90
2017-06-05T13:14:50.507Z,4.40
2017-06-05T13:17:17.200Z,4.63
2017-06-05T13:19:43.887Z,5.17
2017-06-05T13:22:10.577Z,4.20
2017-06-05T13:24:37.244Z,4.50
2017-06-05T13:27:03.941Z,3.60
2017-06-05T13:29:30.636Z,3.53
2017-06-05T13:31:57.302Z,4.17
2017-06-05T13:34:23.969Z,3.63
2017-06-05T13:36:50.639Z,3.50
2017-06-05T13:39:17.308Z,3.70
2017-06-05T13:41:43.992Z,3.33
2017-06-05T13:44:10.659Z,3.20
2017-06-05T13:46:37.373Z,3.40
2017-06-05T13:49:04.032Z,3.73
2017-06-05T13:51:30.701Z,3.50
2017-06-05T13:53:57.367Z,3.67
2017-06-05T13:56:24.027Z,3.93
2017-06-05T13:58:50.716Z,3.40
2017-06-05T14:01:17.380Z,4.27
2017-06-05T14:03:44.089Z,3.83
2017-06-05T14:06:10.758Z,3.40
2017-06-05T14:08:37.428Z,3.30
2017-06-05T14:11:04.089Z,3.50
2017-06-05T14:13:30.759Z,3.63
2017-06-05T14:15:57.444Z,2.80
2017-06-05T14:18:24.108Z,3.13
2017-06-05T14:20:50.803Z,3.40
2017-06-05T14:23:17.468Z,3.03
2017-06-05T14:25:44.128Z,3.40
2017-06-05T14:28:10.792Z,3.40
2017-06-05T14:30:37.456Z,3.50
2017-06-05T14:33:04.148Z,3.20
2017-06-05T14:35:30.813Z,3.40
2017-06-05T14:37:57.524Z,3.10
2017-06-05T14:40:24.187Z,2.93
2017-06-05T14:42:51.244Z,2.90
2017-06-05T14:45:17.907Z,3.43
2017-06-05T14:47:44.569Z,3.30
2017-06-05T14:50:11.269Z,3.07
2017-06-05T14:52:37.939Z,3.50
2017-06-05T14:55:04.644Z,3.50
2017-06-05T14:57:31.304Z,3.53
2017-06-05T14:59:57.969Z,3.60
2017-06-05T15:02:24.632Z,3.57
2017-06-05T15:04:51.296Z,3.73
2017-06-05T15:07:17.979Z,3.27
2017-06-05T15:09:44.644Z,2.97
2017-06-05T15:12:11.355Z,2.70
2017-06-05T15:14:38.028Z,3.10
2017-06-05T15:17:04.692Z,2.83
2017-06-05T15:19:31.355Z,3.20
2017-06-05T15:21:58.036Z,3.17
2017-06-05T15:24:24.730Z,3.33
2017-06-05T15:26:51.389Z,3.40
2017-06-05T15:29:18.088Z,3.00
2017-06-05T15:31:44.752Z,4.87
2017-06-05T15:34:11.419Z,3.93
2017-06-05T15:36:38.080Z,4.60
2017-06-05T15:39:04.748Z,3.70
2017-06-05T15:41:31.435Z,3.47
2017-06-05T15:43:58.095Z,3.10
2017-06-05T15:46:24.788Z,3.03
2017-06-05T15:48:51.452Z,3.30
2017-06-05T15:51:18.117Z,3.13
2017-06-05T15:53:44.784Z,3.37
2017-06-05T15:56:11.453Z,3.17
2017-06-05T15:58:38.149Z,3.30
2017-06-05T16:01:04.825Z,3.33
2017-06-05T16:03:31.523Z,3.00
2017-06-05T16:05:58.196Z,3.10
2017-06-05T16:08:24.855Z,2.90
2017-06-05T16:10:51.533Z,3.60
2017-06-05T16:13:18.207Z,3.73
2017-06-05T16:15:44.899Z,3.07
2017-06-05T16:18:11.566Z,3.20
2017-06-05T16:20:38.271Z,7.20
2017-06-05T16:23:04.935Z,3.70
2017-06-05T16:25:31.595Z,5.20
2017-06-05T16:27:58.259Z,6.70
2017-06-05T16:30:24.921Z,4.60
2017-06-05T16:32:51.614Z,3.53
2017-06-05T16:35:18.281Z,2.73
2017-06-05T16:37:44.979Z,3.47
2017-06-05T16:40:11.649Z,13.40
2017-06-05T16:42:38.312Z,4.80
2017-06-05T16:45:04.975Z,3.60
2017-06-05T16:47:31.636Z,5.47
2017-06-05T16:49:58.324Z,4.13
2017-06-05T16:52:24.993Z,4.27
2017-06-05T16:54:51.688Z,3.90
2017-06-05T16:57:18.355Z,4.03
2017-06-05T16:59:45.015Z,3.40
2017-06-05T17:02:11.675Z,3.70
2017-06-05T17:04:38.349Z,3.20
2017-06-05T17:07:05.036Z,3.40
2017-06-05T17:09:31.708Z,3.50
2017-06-05T17:11:58.396Z,3.80
2017-06-05T17:14:25.059Z,3.23
2017-06-05T17:16:51.719Z,3.43
2017-06-05T17:19:18.383Z,3.30
2017-06-05T17:21:45.056Z,3.73
2017-06-05T17:24:11.732Z,3.87
2017-06-05T17:26:38.400Z,3.63
2017-06-05T17:29:05.096Z,3.73
2017-06-05T17:31:31.756Z,3.23
2017-06-05T17:33:58.459Z,3.47
2017-06-05T17:36:25.123Z,3.97
2017-06-05T17:38:51.792Z,3.70
2017-06-05T17:41:18.460Z,3.90
2017-06-05T17:43:45.120Z,4.17
2017-06-05T17:46:11.783Z,4.03
2017-06-05T17:48:38.456Z,4.30
2017-06-05T17:51:05.152Z,3.80
2017-06-05T17:53:31.819Z,4.37
2017-06-05T17:55:58.496Z,3.62
2017-06-05T17:58:25.177Z,4.12
2017-06-05T18:00:51.863Z,3.80
2017-06-05T18:03:18.550Z,3.83
2017-06-05T18:05:45.232Z,3.40
2017-06-05T18:08:11.941Z,3.90
2017-06-05T18:10:38.613Z,4.30
2017-06-05T18:13:05.284Z,4.25
2017-06-05T18:15:31.960Z,3.87
2017-06-05T18:17:58.640Z,4.50
2017-06-05T18:20:25.311Z,3.97
2017-06-05T18:22:51.993Z,3.90
2017-06-05T18:25:18.667Z,3.87
2017-06-05T18:27:45.332Z,3.75
2017-06-05T18:30:12.052Z,3.90
2017-06-05T18:32:38.721Z,4.20
2017-06-05T18:35:05.401Z,4.07
2017-06-05T18:37:32.067Z,4.37
2017-06-05T18:39:58.743Z,4.20
2017-06-05T18:42:25.416Z,3.80
2017-06-05T18:44:52.083Z,4.80
2017-06-05T18:47:18.757Z,4.10
2017-06-05T18:49:45.428Z,4.70
2017-06-05T18:52:12.092Z,4.93
2017-06-05T18:54:38.779Z,4.47
2017-06-05T18:57:05.451Z,4.43
2017-06-05T18:59:32.141Z,4.30
2017-06-05T19:01:58.817Z,5.25
2017-06-05T19:04:25.515Z,4.95
2017-06-05T19:06:52.176Z,5.20
2017-06-05T19:09:18.842Z,5.40
2017-06-05T19:11:45.503Z,5.60
2017-06-05T19:14:12.181Z,5.43
2017-06-05T19:16:38.870Z,5.00
2017-06-05T19:19:05.535Z,5.85
2017-06-05T19:21:32.226Z,5.10
2017-06-05T19:23:58.892Z,6.20
2017-06-05T19:26:25.599Z,6.22
2017-06-05T19:28:52.267Z,6.90
2017-06-05T19:31:18.940Z,6.30
2017-06-05T19:33:45.643Z,6.60
2017-06-05T19:36:12.307Z,7.82
2017-06-05T19:38:39.001Z,7.00
2017-06-05T19:41:05.667Z,6.43
2017-06-05T19:43:32.377Z,6.40
2017-06-05T19:45:59.352Z,6.57
2017-06-05T19:48:26.051Z,6.10
2017-06-05T19:50:52.729Z,6.80
2017-06-05T19:53:19.403Z,7.10
2017-06-05T19:55:46.072Z,7.47
2017-06-05T19:58:12.736Z,7.65
2017-06-05T20:00:39.430Z,7.55
2017-06-05T20:03:06.113Z,7.30
2017-06-05T20:05:32.810Z,7.53
2017-06-05T20:07:59.478Z,8.05
2017-06-05T20:10:26.181Z,7.20
2017-06-05T20:12:52.864Z,6.70
2017-06-05T20:15:19.531Z,7.28
2017-06-05T20:17:46.202Z,7.00
2017-06-05T20:20:12.885Z,7.95
2017-06-05T20:22:39.572Z,7.40
2017-06-05T20:25:06.244Z,8.15
2017-06-05T20:27:32.942Z,8.02
2017-06-05T20:29:59.608Z,8.98
2017-06-05T20:32:26.308Z,7.97
2017-06-05T20:34:52.972Z,8.90
2017-06-05T20:37:19.643Z,8.63
2017-06-05T20:39:46.308Z,8.70
2017-06-05T20:42:12.985Z,8.95
2017-06-05T20:44:39.675Z,8.50
2017-06-05T20:47:06.345Z,9.35
2017-06-05T20:49:33.040Z,9.10
2017-06-05T20:51:59.704Z,9.00
2017-06-05T20:54:26.380Z,9.63
2017-06-05T20:56:53.058Z,9.82
2017-06-05T20:59:19.727Z,9.60
2017-06-05T21:01:46.428Z,10.23
2017-06-05T21:04:13.101Z,8.45
2017-06-05T21:06:39.787Z,8.70
2017-06-05T21:09:06.459Z,8.80
2017-06-05T21:11:33.129Z,9.25
2017-06-05T21:13:59.801Z,8.73
2017-06-05T21:16:26.500Z,8.68
2017-06-05T21:18:53.191Z,8.45
2017-06-05T21:21:19.856Z,9.75
2017-06-05T21:23:46.555Z,7.80
2017-06-05T21:26:13.239Z,8.20
2017-06-05T21:28:39.918Z,8.68
2017-06-05T21:31:06.595Z,8.95
2017-06-05T21:33:33.268Z,8.13
2017-06-05T21:35:59.931Z,8.32
2017-06-05T21:38:26.592Z,7.32
2017-06-05T21:40:53.292Z,8.93
2017-06-05T21:43:19.971Z,9.23
2017-06-05T21:45:46.640Z,8.52
2017-06-05T21:48:13.324Z,8.60
2017-06-05T21:50:39.998Z,8.27
2017-06-05T21:53:06.660Z,8.70
2017-06-05T21:55:33.333Z,8.07
2017-06-05T21:58:00.027Z,8.85
2017-06-05T22:00:26.701Z,8.57
2017-06-05T22:02:53.391Z,9.00
2017-06-05T22:05:20.063Z,9.20
2017-06-05T22:07:46.736Z,9.60
2017-06-05T22:10:13.403Z,8.82
2017-06-05T22:12:40.072Z,9.27
2017-06-05T22:15:06.764Z,9.20
2017-06-05T22:17:33.443Z,9.38
2017-06-05T22:20:00.120Z,9.57
2017-06-05T22:22:26.791Z,9.55
2017-06-05T22:24:53.464Z,9.57
2017-06-05T22:27:20.139Z,10.02
2017-06-05T22:29:46.835Z,10.02
2017-06-05T22:32:13.535Z,10.05
2017-06-05T22:34:40.199Z,9.50
2017-06-05T22:37:06.872Z,9.50
2017-06-05T22:39:33.543Z,9.35
2017-06-05T22:42:00.215Z,11.12
2017-06-05T22:44:26.891Z,9.65
2017-06-05T22:46:53.572Z,11.93
2017-06-05T22:49:20.247Z,12.37
2017-06-05T22:51:46.919Z,10.85
2017-06-05T22:54:13.606Z,10.68
2017-06-05T22:56:40.280Z,10.93
2017-06-05T22:59:06.991Z,11.30
2017-06-05T23:01:33.658Z,11.90
2017-06-05T23:04:00.336Z,11.25
2017-06-05T23:06:27.008Z,11.00
2017-06-05T23:08:53.680Z,11.95
2017-06-05T23:11:20.352Z,10.40
2017-06-05T23:13:47.019Z,10.93
2017-06-05T23:16:13.691Z,10.43
2017-06-05T23:18:40.361Z,11.50
2017-06-05T23:21:07.061Z,11.05
2017-06-05T23:23:33.752Z,11.32
2017-06-05T23:26:00.427Z,11.50
2017-06-05T23:28:27.100Z,11.50
2017-06-05T23:30:53.772Z,11.95
2017-06-05T23:33:20.444Z,12.57
2017-06-05T23:35:47.116Z,12.77
2017-06-05T23:38:13.789Z,11.07
2017-06-05T23:40:40.466Z,11.82
2017-06-05T23:43:07.167Z,12.40
2017-06-05T23:45:33.839Z,12.20
2017-06-05T23:48:00.518Z,12.30
2017-06-05T23:50:27.188Z,13.93
2017-06-05T23:52:53.860Z,12.73
2017-06-05T23:55:20.535Z,12.93
2017-06-05T23:57:47.208Z,12.30
